createdAt,value
2023-03-27T00:00:40.754Z,101104.25
2023-03-27T00:03:29.224Z,101059.63
2023-03-27T00:06:30.870Z,101084.97
2023-03-27T00:09:17.733Z,101087.59
2023-03-27T00:12:04.579Z,101097.94
2023-03-27T00:14:51.693Z,101095.25
2023-03-27T00:17:38.645Z,101116.09
2023-03-27T00:20:25.866Z,101110.91
2023-03-27T00:23:19.785Z,101116.94
2023-03-27T00:26:10.423Z,101053.06
2023-03-27T00:28:57.719Z,101118.56
2023-03-27T00:31:44.647Z,101038.13
2023-03-27T00:34:31.628Z,101133.16
2023-03-27T00:37:18.712Z,101121.06
2023-03-27T00:40:05.757Z,101137.41
2023-03-27T00:42:52.663Z,101123.56
2023-03-27T00:45:46.482Z,101125.25
2023-03-27T00:48:34.410Z,101126.09
2023-03-27T00:51:22.483Z,101071.78
2023-03-27T00:54:11.374Z,101091.09
2023-03-27T00:56:58.804Z,101108.41
2023-03-27T00:59:51.530Z,101132.84
2023-03-27T01:02:39.327Z,101143.16
2023-03-27T01:05:28.002Z,101133.66
2023-03-27T01:08:15.807Z,101131.88
2023-03-27T01:11:44.100Z,101137.00
2023-03-27T01:15:02.139Z,101123.22
2023-03-27T01:18:17.845Z,101143.88
2023-03-27T01:21:49.627Z,101133.47
2023-03-27T01:24:42.586Z,101133.44
2023-03-27T01:28:11.253Z,101136.00
2023-03-27T01:31:04.019Z,101135.06
2023-03-27T01:34:09.721Z,101143.69
2023-03-27T01:36:56.658Z,101135.00
2023-03-27T01:39:49.498Z,101147.03
2023-03-27T01:42:50.555Z,101151.34
2023-03-27T01:45:43.929Z,101149.41
2023-03-27T01:48:49.162Z,101141.63
2023-03-27T01:51:56.376Z,101161.56
2023-03-27T01:54:51.589Z,101163.31
2023-03-27T01:57:53.214Z,101160.69
2023-03-27T02:00:52.037Z,101167.56
2023-03-27T02:04:01.014Z,101166.59
2023-03-27T02:06:50.993Z,101168.34
2023-03-27T02:09:58.027Z,101169.16
2023-03-27T02:12:52.597Z,101162.25
2023-03-27T02:15:41.968Z,101168.25
2023-03-27T02:18:54.213Z,101165.69
2023-03-27T02:21:41.227Z,101161.19
2023-03-27T02:24:28.123Z,101128.06
2023-03-27T02:27:41.626Z,101177.69
2023-03-27T02:30:47.049Z,101175.94
2023-03-27T02:34:13.571Z,101178.53
2023-03-27T02:37:24.974Z,101177.66
2023-03-27T02:41:08.499Z,101158.34
2023-03-27T02:44:30.559Z,101180.19
2023-03-27T02:47:21.302Z,101180.19
2023-03-27T02:50:16.135Z,101170.53
2023-03-27T02:53:06.984Z,101162.50
2023-03-27T02:56:06.144Z,101164.97
2023-03-27T02:59:04.210Z,101194.78
2023-03-27T03:01:58.434Z,101177.34
2023-03-27T03:04:59.648Z,101193.00
2023-03-27T03:07:49.532Z,101197.25
2023-03-27T03:10:37.086Z,101203.38
2023-03-27T03:13:23.962Z,101195.41
2023-03-27T03:16:11.237Z,101195.59
2023-03-27T03:19:00.041Z,101196.47
2023-03-27T03:21:47.011Z,101199.91
2023-03-27T03:24:33.886Z,101198.09
2023-03-27T03:27:21.350Z,101189.41
2023-03-27T03:30:31.689Z,101198.06
2023-03-27T03:33:25.182Z,101209.44
2023-03-27T03:36:12.158Z,101211.16
2023-03-27T03:38:59.690Z,101212.06
2023-03-27T03:41:46.613Z,101200.63
2023-03-27T03:44:33.548Z,101217.22
2023-03-27T03:47:28.839Z,101215.47
2023-03-27T03:50:15.761Z,101218.03
2023-03-27T03:53:02.728Z,101218.81
2023-03-27T03:55:50.061Z,101228.38
2023-03-27T03:58:37.114Z,101230.09
2023-03-27T04:01:25.276Z,101159.19
2023-03-27T04:04:17.049Z,101218.69
2023-03-27T04:07:24.151Z,101230.88
2023-03-27T04:10:14.520Z,101233.47
2023-03-27T04:13:06.009Z,101231.72
2023-03-27T04:15:57.471Z,101191.41
2023-03-27T04:18:51.045Z,101241.13
2023-03-27T04:21:40.147Z,101234.84
2023-03-27T04:24:27.216Z,101235.78
2023-03-27T04:27:14.129Z,101223.56
2023-03-27T04:30:44.108Z,101205.91
2023-03-27T04:34:06.484Z,101239.22
2023-03-27T04:37:24.167Z,101235.53
2023-03-27T04:40:44.099Z,101257.34
2023-03-27T04:43:32.902Z,101261.63
2023-03-27T04:46:20.107Z,101264.25
2023-03-27T04:49:12.636Z,101236.97
2023-03-27T04:52:07.551Z,101272.78
2023-03-27T04:54:55.429Z,101279.75
2023-03-27T04:57:45.043Z,101277.13
2023-03-27T05:00:38.834Z,101279.69
2023-03-27T05:03:48.900Z,101280.53
2023-03-27T05:06:43.700Z,101259.47
2023-03-27T05:09:35.042Z,101293.50
2023-03-27T05:12:22.140Z,101290.97
2023-03-27T05:15:12.618Z,101275.03
2023-03-27T05:18:04.995Z,101302.19
2023-03-27T05:20:52.017Z,101262.84
2023-03-27T05:23:38.939Z,101306.53
2023-03-27T05:26:27.026Z,101308.28
2023-03-27T05:29:17.476Z,101288.09
2023-03-27T05:32:06.623Z,101289.97
2023-03-27T05:35:02.527Z,101316.16
2023-03-27T05:37:55.960Z,101316.19
2023-03-27T05:41:05.414Z,101318.00
2023-03-27T05:43:56.010Z,101254.16
2023-03-27T05:46:43.725Z,101315.50
2023-03-27T05:49:37.273Z,101324.13
2023-03-27T05:52:31.561Z,101325.97
2023-03-27T05:55:18.548Z,101339.00
2023-03-27T05:58:05.611Z,101333.88
2023-03-27T06:00:52.604Z,101346.00
2023-03-27T06:03:41.375Z,101338.25
2023-03-27T06:06:35.889Z,101292.75
2023-03-27T06:09:23.336Z,101313.03
2023-03-27T06:12:29.183Z,101317.31
2023-03-27T06:15:25.824Z,101354.94
2023-03-27T06:18:35.978Z,101356.69
2023-03-27T06:21:23.629Z,101343.81
2023-03-27T06:24:17.363Z,101339.38
2023-03-27T06:27:04.466Z,101355.09
2023-03-27T06:29:54.569Z,101310.47
2023-03-27T06:32:41.648Z,101344.66
2023-03-27T06:35:31.203Z,101365.59
2023-03-27T06:38:31.105Z,101328.09
2023-03-27T06:41:18.715Z,101263.34
2023-03-27T06:44:24.636Z,101365.81
2023-03-27T06:47:34.582Z,101364.03
2023-03-27T06:50:53.526Z,101309.03
2023-03-27T06:53:40.851Z,101366.00
2023-03-27T06:56:28.468Z,101378.19
2023-03-27T06:59:47.677Z,101376.50
2023-03-27T07:02:40.164Z,101276.03
2023-03-27T07:05:27.847Z,101325.06
2023-03-27T07:08:23.328Z,101370.72
2023-03-27T07:11:15.284Z,101381.19
2023-03-27T07:14:13.878Z,101383.00
2023-03-27T07:17:00.953Z,101376.97
2023-03-27T07:20:00.265Z,101389.28
2023-03-27T07:22:48.048Z,101385.09
2023-03-27T07:26:00.895Z,101376.59
2023-03-27T07:29:10.605Z,101381.91
2023-03-27T07:32:01.554Z,101378.56
2023-03-27T07:34:59.446Z,101369.06
2023-03-27T07:38:05.862Z,101383.16
2023-03-27T07:40:55.702Z,101391.09
2023-03-27T07:43:48.533Z,101390.34
2023-03-27T07:46:35.584Z,101387.91
2023-03-27T07:49:40.187Z,101384.63
2023-03-27T07:52:32.963Z,101383.00
2023-03-27T07:55:24.177Z,101377.00
2023-03-27T07:58:20.537Z,101379.84
2023-03-27T08:01:09.364Z,101392.06
2023-03-27T08:03:56.569Z,101386.16
2023-03-27T08:06:44.105Z,101328.59
2023-03-27T08:09:37.715Z,101396.81
2023-03-27T08:12:25.263Z,101396.03
2023-03-27T08:15:18.111Z,101403.13
2023-03-27T08:18:05.853Z,101341.34
2023-03-27T08:20:52.757Z,101392.03
2023-03-27T08:23:42.297Z,101339.72
2023-03-27T08:26:58.808Z,101395.00
2023-03-27T08:29:46.474Z,101389.75
2023-03-27T08:32:33.644Z,101409.91
2023-03-27T08:35:26.408Z,101401.38
2023-03-27T08:38:25.824Z,101390.94
2023-03-27T08:41:25.918Z,101411.16
2023-03-27T08:44:23.542Z,101343.16
2023-03-27T08:47:31.174Z,101402.66
2023-03-27T08:50:35.473Z,101412.38
2023-03-27T08:54:10.580Z,101413.38
2023-03-27T08:56:57.613Z,101416.97
2023-03-27T08:59:48.510Z,101423.16
2023-03-27T09:03:10.292Z,101413.75
2023-03-27T09:06:07.253Z,101399.78
2023-03-27T09:09:13.093Z,101416.59
2023-03-27T09:12:10.451Z,101421.06
2023-03-27T09:15:54.591Z,101414.25
2023-03-27T09:18:46.444Z,101419.56
2023-03-27T09:21:51.366Z,101426.56
2023-03-27T09:25:01.118Z,101426.75
2023-03-27T09:28:32.959Z,101420.81
2023-03-27T09:32:06.261Z,101416.59
2023-03-27T09:34:55.698Z,101424.50
2023-03-27T09:37:42.600Z,101425.47
2023-03-27T09:40:41.893Z,101425.59
2023-03-27T09:43:36.460Z,101423.97
2023-03-27T09:46:24.373Z,101425.84
2023-03-27T09:49:24.962Z,101415.53
2023-03-27T09:52:16.226Z,101420.88
2023-03-27T09:55:15.514Z,101393.06
2023-03-27T09:58:03.279Z,101426.28
2023-03-27T10:00:54.954Z,101415.91
2023-03-27T10:03:42.092Z,101400.38
2023-03-27T10:06:33.972Z,101433.63
2023-03-27T10:09:41.548Z,101426.78
2023-03-27T10:12:39.374Z,101439.91
2023-03-27T10:15:50.110Z,101414.75
2023-03-27T10:18:47.971Z,101421.84
2023-03-27T10:21:45.801Z,101429.72
2023-03-27T10:25:07.388Z,101431.53
2023-03-27T10:28:12.972Z,101416.75
2023-03-27T10:31:22.726Z,101430.75
2023-03-27T10:34:14.694Z,101435.09
2023-03-27T10:38:00.400Z,101429.03
2023-03-27T17:58:34.554Z,101627.16
2023-03-27T18:01:12.681Z,101627.13
2023-03-27T18:03:39.938Z,101597.38
2023-03-27T18:06:07.079Z,101609.53
2023-03-27T18:08:34.359Z,101621.75
2023-03-27T18:11:01.586Z,101620.88
2023-03-27T18:13:30.108Z,101629.59
2023-03-27T18:15:58.368Z,101610.31
2023-03-27T18:18:26.054Z,101638.22
2023-03-27T18:20:53.903Z,101644.28
2023-03-27T18:23:22.004Z,101644.28
2023-03-27T18:25:49.082Z,101643.38
2023-03-27T18:28:16.411Z,101644.25
2023-03-27T18:30:44.262Z,101646.81
2023-03-27T18:33:11.691Z,101639.78
2023-03-27T18:35:38.951Z,101644.06
2023-03-27T18:38:06.265Z,101648.41
2023-03-27T18:40:33.608Z,101655.31
2023-03-27T18:43:00.969Z,101654.41
2023-03-27T18:45:27.949Z,101650.00
2023-03-27T18:47:54.972Z,101648.13
2023-03-27T18:50:21.865Z,101620.06
2023-03-27T18:52:48.699Z,101657.69
2023-03-27T18:55:15.992Z,101657.69
2023-03-27T18:57:42.980Z,101658.53
2023-03-27T19:00:17.605Z,101665.44
2023-03-27T19:02:45.492Z,101663.69
2023-03-27T19:05:13.134Z,101658.41
2023-03-27T19:07:59.913Z,101665.28
2023-03-27T19:10:46.739Z,101660.88
2023-03-27T19:13:37.443Z,101612.66
2023-03-27T19:16:56.632Z,101673.81
2023-03-27T19:20:03.783Z,101643.13
2023-03-27T19:22:54.552Z,101654.47
2023-03-27T19:25:47.997Z,101665.78
2023-03-27T19:28:35.728Z,101669.25
2023-03-27T19:31:26.973Z,101677.03
2023-03-27T19:34:13.911Z,101681.28
2023-03-27T19:37:00.693Z,101660.28
2023-03-27T19:39:47.796Z,101674.25
2023-03-27T19:42:34.795Z,101619.00
2023-03-27T19:45:21.703Z,101670.56
2023-03-27T19:48:08.646Z,101677.56
2023-03-27T19:50:55.904Z,101681.91
2023-03-27T19:53:43.073Z,101607.41
2023-03-27T19:56:29.958Z,101693.06
2023-03-27T19:59:29.903Z,101690.44
2023-03-27T20:02:17.510Z,101688.66
2023-03-27T20:05:04.549Z,101693.78
2023-03-27T20:07:51.405Z,101691.13
2023-03-27T20:10:38.313Z,101689.34
2023-03-27T20:13:25.164Z,101680.59
2023-03-27T20:16:12.904Z,101670.00
2023-03-27T20:19:01.357Z,101696.16
2023-03-27T20:21:48.780Z,101670.72
2023-03-27T20:24:36.102Z,101696.03
2023-03-27T20:27:23.033Z,101684.66
2023-03-27T20:30:09.927Z,101676.78
2023-03-27T20:32:56.817Z,101671.50
2023-03-27T20:35:44.558Z,101685.38
2023-03-27T20:38:31.750Z,101633.63
2023-03-27T20:41:19.131Z,101691.38
2023-03-27T20:44:05.989Z,101696.53
2023-03-27T20:46:54.544Z,101697.41
2023-03-27T20:49:45.351Z,101685.09
2023-03-27T20:52:35.575Z,101654.44
2023-03-27T20:55:32.902Z,101688.59
2023-03-27T20:58:23.015Z,101692.84
2023-03-27T21:01:11.357Z,101692.81
2023-03-27T21:04:00.446Z,101679.66
2023-03-27T21:06:47.370Z,101689.22
2023-03-27T21:09:34.244Z,101690.06
2023-03-27T21:12:21.218Z,101701.28
2023-03-27T21:15:08.102Z,101707.28
2023-03-27T21:17:55.062Z,101702.03
2023-03-27T21:20:45.873Z,101696.78
2023-03-27T21:23:32.665Z,101706.28
2023-03-27T21:26:19.692Z,101635.22
2023-03-27T21:29:06.590Z,101691.28
2023-03-27T21:31:53.524Z,101707.91
2023-03-27T21:34:40.481Z,101712.22
2023-03-27T21:37:27.444Z,101710.44
2023-03-27T21:40:14.274Z,101704.31
2023-03-27T21:43:01.309Z,101706.00
2023-03-27T21:45:48.192Z,101709.44
2023-03-27T21:48:35.596Z,101706.81
2023-03-27T21:51:25.519Z,101642.84
2023-03-27T21:54:12.702Z,101705.84
2023-03-27T21:56:59.622Z,101665.50
2023-03-27T21:59:46.844Z,101690.03
2023-03-27T22:02:33.774Z,101704.06
2023-03-27T22:05:20.710Z,101709.22
2023-03-27T22:08:07.732Z,101712.63
2023-03-27T22:10:55.244Z,101714.31
2023-03-27T22:13:42.045Z,101713.41
2023-03-27T22:16:32.307Z,101712.56
2023-03-27T22:19:19.198Z,101709.84
2023-03-27T22:22:06.257Z,101701.00
2023-03-27T22:24:53.874Z,101717.63
2023-03-27T22:27:40.913Z,101720.25
2023-03-27T22:30:28.232Z,101718.47
2023-03-27T22:33:15.257Z,101695.66
2023-03-27T22:36:08.243Z,101715.81
2023-03-27T22:38:56.002Z,101708.88
2023-03-27T22:41:42.979Z,101705.38
2023-03-27T22:44:29.870Z,101715.75
2023-03-27T22:47:18.272Z,101689.53
2023-03-27T22:50:05.299Z,101701.63
2023-03-27T22:52:52.249Z,101695.63
2023-03-27T22:55:39.212Z,101686.84
2023-03-27T22:58:26.556Z,101714.78
2023-03-27T23:01:14.932Z,101714.72
2023-03-27T23:04:02.002Z,101704.19
2023-03-27T23:06:49.033Z,101716.50
2023-03-27T23:09:36.140Z,101719.91
2023-03-27T23:12:23.213Z,101719.03
2023-03-27T23:15:10.161Z,101716.44
2023-03-27T23:17:57.067Z,101655.03
2023-03-27T23:20:43.990Z,101723.31
2023-03-27T23:23:31.035Z,101716.38
2023-03-27T23:26:18.638Z,101721.56
2023-03-27T23:29:05.512Z,101718.94
2023-03-27T23:31:52.516Z,101729.31
2023-03-27T23:34:39.555Z,101731.88
2023-03-27T23:37:26.387Z,101679.28
2023-03-27T23:40:13.267Z,101709.13
2023-03-27T23:43:00.222Z,101696.78
2023-03-27T23:45:47.091Z,101709.94
2023-03-27T23:48:34.093Z,101722.25
2023-03-27T23:51:21.049Z,101722.22
2023-03-27T23:54:07.943Z,101726.56
2023-03-27T23:56:54.919Z,101714.38
2023-03-27T23:59:41.803Z,101716.13
